Hartsfield Jackson Atlanta International Airport
KATL : now visible

Airfield :











YOU CAN JOIN US ON...

 
LOGIN :

Register | Disclaimer

   EN    FR    IT 

 









Legend :    VFR   Marginal VFR   IFR   Intensive IFR   Very Intensive IFR
Visi :
Ceiling :
>= 8 km
>= 3000ft
5 to 8 km
1000 to 3000 ft
1500m to 5 km
500 to 1000 ft
800 to 1500m
200 to 500 ft
< 800m
< 200 ft
Symbols :   Thunderstorms  Fog  Heavy snow  Heavy precipitations  Wind > 20 kt






- Airport Elevation : 1026 ft
- IATA code : ATL


KATL - Hartsfield Jackson Atlanta International

CURRENT METAR :
  • 210952Z 19005KT 7SM BKN008 OVC013 23/22 A3008 RMK AO2 SLP175 CIG 006V010 BINOVC T02330222 $

EXPIRED METARs :
  • 210928Z 20007KT 10SM FEW008 OVC013 23/22 A3007 RMK AO2 T02330222 $
  • 210852Z 21006KT 7SM SCT005 BKN009 OVC013 23/22 A3007 RMK AO2 SLP173 BINOVC T02330222 57009 $
  • 210826Z 20007KT 7SM BKN005 OVC011 23/22 A3008 RMK AO2 BINOVC T02330222 $
  • 210752Z 21006KT 7SM OVC004 23/22 A3008 RMK AO2 SLP176 T02330222 $
  • 210724Z 20007KT 7SM OVC004 23/22 A3008 RMK AO2 T02330222 $
  • 210652Z 20007KT 10SM OVC006 24/22 A3009 RMK AO2 SLP179 T02390222 $
  • 210609Z 17005KT 10SM BKN009 BKN026 BKN075 24/22 A3010 RMK AO2 T02390217 $
  • 210552Z 17006KT 10SM FEW006 BKN026 BKN075 BKN250 24/22 A3010 RMK AO2 SLP182 BKN026 V SCT T02390217 10267 20239 56005 $
  • 210521Z 18006KT 10SM FEW009 BKN075 BKN250 24/22 A3010 RMK AO2 T02440222 $

TAF KATL
Valid from the 21 at 10:00 until the 22 at 12:00 UTC


210932Z 2110/2212 21006KT P6SM VCSH SCT005 BKN009 OVC013
TEMPO 2110/2112 5SM -SHRA OVC004
FM211500 25004KT P6SM VCSH BKN015
FM211700 25004KT P6SM VCSH BKN020
TEMPO 2118/2122 4SM TSRA BR OVC025CB
FM220100 20003KT 6SM -SHRA BKN070
FM220400 VRB03KT P6SM BKN060
FM220900 VRB03KT P6SM BKN006
KZTL FIR / North America



MET'MAP, your aeronautical weather chart ! - Copyright ORBIFLY December 2007 - Disclaimer

ORBIFLY MET'MAP TEAM :

Programming & Development : Alexandra Zaïnal
Original concept : Baudouin d'Aumeries
Technical & hardware support : Manuel Goepfert
Assistance : Marc-Olivier Méhu




SOURCES & CREDITS :

   NOAA       Earth
Advisory